sensor_id;sensor_type;location;lat;lon;timestamp;P1;durP1;ratioP1;P2;durP2;ratioP2
54368;SDS011;40266;52.434;17.056;2023-03-16T00:04:12;35.70;;;15.00;;
54368;SDS011;40266;52.434;17.056;2023-03-16T00:09:38;34.30;;;13.50;;
54368;SDS011;40266;52.434;17.056;2023-03-16T00:12:22;35.50;;;14.30;;
54368;SDS011;40266;52.434;17.056;2023-03-16T00:15:07;34.00;;;13.90;;
54368;SDS011;40266;52.434;17.056;2023-03-16T00:17:50;38.50;;;14.00;;
54368;SDS011;40266;52.434;17.056;2023-03-16T00:23:16;32.10;;;12.10;;
54368;SDS011;40266;52.434;17.056;2023-03-16T00:25:59;35.40;;;14.20;;
54368;SDS011;40266;52.434;17.056;2023-03-16T00:28:44;33.10;;;13.50;;
54368;SDS011;40266;52.434;17.056;2023-03-16T00:31:27;32.10;;;11.80;;
54368;SDS011;40266;52.434;17.056;2023-03-16T00:36:53;31.00;;;11.30;;
54368;SDS011;40266;52.434;17.056;2023-03-16T00:39:36;24.90;;;11.10;;
54368;SDS011;40266;52.434;17.056;2023-03-16T00:45:02;26.70;;;10.50;;
54368;SDS011;40266;52.434;17.056;2023-03-16T00:47:49;27.30;;;10.20;;
54368;SDS011;40266;52.434;17.056;2023-03-16T00:50:36;25.30;;;10.50;;
54368;SDS011;40266;52.434;17.056;2023-03-16T00:53:19;31.30;;;11.20;;
54368;SDS011;40266;52.434;17.056;2023-03-16T00:56:03;26.70;;;10.60;;
54368;SDS011;40266;52.434;17.056;2023-03-16T00:58:47;27.20;;;10.40;;
54368;SDS011;40266;52.434;17.056;2023-03-16T01:04:16;27.00;;;10.50;;
54368;SDS011;40266;52.434;17.056;2023-03-16T01:07:01;23.20;;;8.60;;
54368;SDS011;40266;52.434;17.056;2023-03-16T01:09:45;34.50;;;13.70;;
54368;SDS011;40266;52.434;17.056;2023-03-16T01:15:11;23.50;;;8.40;;
54368;SDS011;40266;52.434;17.056;2023-03-16T01:17:55;23.50;;;9.10;;
54368;SDS011;40266;52.434;17.056;2023-03-16T01:20:38;33.50;;;10.20;;
54368;SDS011;40266;52.434;17.056;2023-03-16T01:23:21;22.50;;;9.20;;
54368;SDS011;40266;52.434;17.056;2023-03-16T01:26:05;22.90;;;8.60;;
54368;SDS011;40266;52.434;17.056;2023-03-16T01:28:49;22.30;;;8.30;;
54368;SDS011;40266;52.434;17.056;2023-03-16T01:31:32;19.70;;;7.90;;
54368;SDS011;40266;52.434;17.056;2023-03-16T01:34:15;19.00;;;8.20;;
54368;SDS011;40266;52.434;17.056;2023-03-16T01:37:00;24.30;;;9.10;;
54368;SDS011;40266;52.434;17.056;2023-03-16T01:40:04;21.90;;;7.80;;
54368;SDS011;40266;52.434;17.056;2023-03-16T01:42:57;22.60;;;9.00;;
54368;SDS011;40266;52.434;17.056;2023-03-16T01:51:50;21.70;;;8.30;;
54368;SDS011;40266;52.434;17.056;2023-03-16T01:54:40;19.70;;;7.90;;
54368;SDS011;40266;52.434;17.056;2023-03-16T01:57:27;23.00;;;8.30;;
54368;SDS011;40266;52.434;17.056;2023-03-16T02:00:17;19.50;;;7.10;;
54368;SDS011;40266;52.434;17.056;2023-03-16T02:03:28;16.20;;;7.60;;
54368;SDS011;40266;52.434;17.056;2023-03-16T02:06:25;17.60;;;7.20;;
54368;SDS011;40266;52.434;17.056;2023-03-16T02:21:34;20.10;;;6.70;;
54368;SDS011;40266;52.434;17.056;2023-03-16T02:28:36;17.90;;;6.70;;
54368;SDS011;40266;52.434;17.056;2023-03-16T02:36:02;17.90;;;6.30;;
54368;SDS011;40266;52.434;17.056;2023-03-16T02:43:07;16.50;;;5.10;;
54368;SDS011;40266;52.434;17.056;2023-03-16T02:46:37;13.90;;;5.70;;
54368;SDS011;40266;52.434;17.056;2023-03-16T02:50:07;17.90;;;5.40;;
54368;SDS011;40266;52.434;17.056;2023-03-16T02:57:35;13.30;;;5.60;;
54368;SDS011;40266;52.434;17.056;2023-03-16T03:20:35;12.00;;;4.70;;
54368;SDS011;40266;52.434;17.056;2023-03-16T03:23:50;11.20;;;5.40;;
54368;SDS011;40266;52.434;17.056;2023-03-16T03:30:43;12.50;;;4.70;;
54368;SDS011;40266;52.434;17.056;2023-03-16T03:44:46;12.30;;;5.10;;
54368;SDS011;40266;52.434;17.056;2023-03-16T03:52:01;16.00;;;7.80;;
54368;SDS011;40266;52.434;17.056;2023-03-16T04:03:29;14.70;;;4.20;;
54368;SDS011;40266;52.434;17.056;2023-03-16T04:11:01;12.40;;;4.60;;
54368;SDS011;40266;52.434;17.056;2023-03-16T04:14:27;13.00;;;4.50;;
54368;SDS011;40266;52.434;17.056;2023-03-16T04:18:11;14.30;;;4.70;;
54368;SDS011;40266;52.434;17.056;2023-03-16T04:21:56;13.80;;;5.10;;
54368;SDS011;40266;52.434;17.056;2023-03-16T04:40:30;15.90;;;5.00;;
54368;SDS011;40266;52.434;17.056;2023-03-16T04:44:11;14.40;;;5.60;;
54368;SDS011;40266;52.434;17.056;2023-03-16T04:46:58;19.60;;;5.70;;
54368;SDS011;40266;52.434;17.056;2023-03-16T04:53:53;22.40;;;7.10;;
54368;SDS011;40266;52.434;17.056;2023-03-16T05:08:59;12.70;;;5.00;;
54368;SDS011;40266;52.434;17.056;2023-03-16T05:15:32;12.50;;;4.90;;
54368;SDS011;40266;52.434;17.056;2023-03-16T05:22:44;17.50;;;5.40;;
54368;SDS011;40266;52.434;17.056;2023-03-16T05:26:03;17.50;;;5.00;;
54368;SDS011;40266;52.434;17.056;2023-03-16T05:50:11;12.60;;;4.40;;
54368;SDS011;40266;52.434;17.056;2023-03-16T05:57:46;14.60;;;5.30;;
54368;SDS011;40266;52.434;17.056;2023-03-16T06:00:57;14.40;;;5.50;;
54368;SDS011;40266;52.434;17.056;2023-03-16T06:07:56;16.60;;;5.50;;
54368;SDS011;40266;52.434;17.056;2023-03-16T06:11:32;14.40;;;5.30;;
54368;SDS011;40266;52.434;17.056;2023-03-16T06:14:50;16.20;;;4.70;;
54368;SDS011;40266;52.434;17.056;2023-03-16T06:21:26;18.00;;;5.00;;
54368;SDS011;40266;52.434;17.056;2023-03-16T06:24:57;11.40;;;5.70;;
54368;SDS011;40266;52.434;17.056;2023-03-16T06:28:25;18.10;;;5.90;;
54368;SDS011;40266;52.434;17.056;2023-03-16T06:31:28;21.00;;;6.30;;
54368;SDS011;40266;52.434;17.056;2023-03-16T06:34:37;17.20;;;6.00;;
54368;SDS011;40266;52.434;17.056;2023-03-16T06:37:53;16.00;;;5.80;;
54368;SDS011;40266;52.434;17.056;2023-03-16T06:41:07;16.90;;;6.60;;
54368;SDS011;40266;52.434;17.056;2023-03-16T06:44:38;19.90;;;6.10;;
54368;SDS011;40266;52.434;17.056;2023-03-16T06:48:02;18.50;;;6.20;;
54368;SDS011;40266;52.434;17.056;2023-03-16T06:50:52;16.10;;;6.70;;
54368;SDS011;40266;52.434;17.056;2023-03-16T06:53:42;22.60;;;5.90;;
54368;SDS011;40266;52.434;17.056;2023-03-16T06:56:35;18.60;;;6.40;;
54368;SDS011;40266;52.434;17.056;2023-03-16T07:02:51;14.70;;;5.50;;
54368;SDS011;40266;52.434;17.056;2023-03-16T07:05:45;10.40;;;4.80;;
54368;SDS011;40266;52.434;17.056;2023-03-16T07:08:28;15.60;;;5.20;;
54368;SDS011;40266;52.434;17.056;2023-03-16T07:14:35;14.10;;;4.90;;
54368;SDS011;40266;52.434;17.056;2023-03-16T07:17:39;17.20;;;5.00;;
54368;SDS011;40266;52.434;17.056;2023-03-16T07:20:24;14.60;;;4.40;;
54368;SDS011;40266;52.434;17.056;2023-03-16T07:23:09;13.20;;;4.30;;
54368;SDS011;40266;52.434;17.056;2023-03-16T07:25:53;12.70;;;4.40;;
54368;SDS011;40266;52.434;17.056;2023-03-16T07:28:37;12.40;;;4.90;;
54368;SDS011;40266;52.434;17.056;2023-03-16T07:31:32;15.90;;;4.80;;
54368;SDS011;40266;52.434;17.056;2023-03-16T07:34:19;13.80;;;5.10;;
54368;SDS011;40266;52.434;17.056;2023-03-16T07:37:07;15.30;;;4.50;;
54368;SDS011;40266;52.434;17.056;2023-03-16T07:39:51;10.80;;;4.90;;
54368;SDS011;40266;52.434;17.056;2023-03-16T07:42:35;11.40;;;4.20;;
54368;SDS011;40266;52.434;17.056;2023-03-16T07:45:23;19.00;;;5.00;;
54368;SDS011;40266;52.434;17.056;2023-03-16T07:48:08;14.30;;;5.30;;
54368;SDS011;40266;52.434;17.056;2023-03-16T07:50:58;13.70;;;4.20;;
54368;SDS011;40266;52.434;17.056;2023-03-16T07:53:42;10.30;;;3.00;;
54368;SDS011;40266;52.434;17.056;2023-03-16T07:56:29;13.60;;;3.80;;
54368;SDS011;40266;52.434;17.056;2023-03-16T07:59:33;11.30;;;3.60;;
54368;SDS011;40266;52.434;17.056;2023-03-16T08:02:17;10.20;;;3.60;;
54368;SDS011;40266;52.434;17.056;2023-03-16T08:05:02;12.40;;;4.00;;
54368;SDS011;40266;52.434;17.056;2023-03-16T08:07:45;12.60;;;4.90;;
54368;SDS011;40266;52.434;17.056;2023-03-16T08:10:33;9.20;;;3.30;;
54368;SDS011;40266;52.434;17.056;2023-03-16T08:13:29;11.60;;;3.30;;
54368;SDS011;40266;52.434;17.056;2023-03-16T08:16:12;16.70;;;3.60;;
54368;SDS011;40266;52.434;17.056;2023-03-16T08:18:57;10.50;;;3.40;;
54368;SDS011;40266;52.434;17.056;2023-03-16T08:21:45;9.30;;;3.50;;
54368;SDS011;40266;52.434;17.056;2023-03-16T08:24:46;10.80;;;3.90;;
54368;SDS011;40266;52.434;17.056;2023-03-16T08:27:31;8.90;;;3.50;;
54368;SDS011;40266;52.434;17.056;2023-03-16T08:30:18;13.50;;;4.10;;
54368;SDS011;40266;52.434;17.056;2023-03-16T08:33:07;9.50;;;3.50;;
54368;SDS011;40266;52.434;17.056;2023-03-16T08:35:51;9.10;;;3.20;;
54368;SDS011;40266;52.434;17.056;2023-03-16T08:38:38;11.00;;;3.10;;
54368;SDS011;40266;52.434;17.056;2023-03-16T08:41:26;8.20;;;3.20;;
54368;SDS011;40266;52.434;17.056;2023-03-16T08:44:13;12.50;;;3.80;;
54368;SDS011;40266;52.434;17.056;2023-03-16T08:47:06;11.40;;;3.50;;
54368;SDS011;40266;52.434;17.056;2023-03-16T08:49:55;10.20;;;3.20;;
54368;SDS011;40266;52.434;17.056;2023-03-16T08:52:50;15.90;;;4.20;;
54368;SDS011;40266;52.434;17.056;2023-03-16T08:56:19;10.60;;;3.50;;
54368;SDS011;40266;52.434;17.056;2023-03-16T08:58:46;9.80;;;3.50;;
54368;SDS011;40266;52.434;17.056;2023-03-16T09:05:24;12.70;;;3.60;;
54368;SDS011;40266;52.434;17.056;2023-03-16T09:08:30;14.70;;;3.10;;
54368;SDS011;40266;52.434;17.056;2023-03-16T09:11:46;14.80;;;4.10;;
54368;SDS011;40266;52.434;17.056;2023-03-16T09:14:32;16.20;;;4.10;;
54368;SDS011;40266;52.434;17.056;2023-03-16T09:17:19;9.50;;;3.10;;
54368;SDS011;40266;52.434;17.056;2023-03-16T09:20:06;13.30;;;4.20;;
54368;SDS011;40266;52.434;17.056;2023-03-16T09:23:17;14.50;;;4.30;;
54368;SDS011;40266;52.434;17.056;2023-03-16T09:26:37;8.40;;;3.80;;
54368;SDS011;40266;52.434;17.056;2023-03-16T09:29:37;11.60;;;4.30;;
54368;SDS011;40266;52.434;17.056;2023-03-16T09:35:48;13.50;;;3.50;;
54368;SDS011;40266;52.434;17.056;2023-03-16T09:39:01;10.20;;;3.40;;
54368;SDS011;40266;52.434;17.056;2023-03-16T09:41:47;9.20;;;2.80;;
54368;SDS011;40266;52.434;17.056;2023-03-16T09:48:39;9.90;;;3.00;;
54368;SDS011;40266;52.434;17.056;2023-03-16T09:58:41;7.30;;;2.50;;
54368;SDS011;40266;52.434;17.056;2023-03-16T10:01:37;6.80;;;2.60;;
54368;SDS011;40266;52.434;17.056;2023-03-16T10:04:49;7.80;;;2.90;;
54368;SDS011;40266;52.434;17.056;2023-03-16T10:14:54;11.90;;;2.80;;
54368;SDS011;40266;52.434;17.056;2023-03-16T10:17:51;9.40;;;2.90;;
54368;SDS011;40266;52.434;17.056;2023-03-16T10:20:51;9.70;;;3.20;;
54368;SDS011;40266;52.434;17.056;2023-03-16T10:23:40;6.80;;;3.30;;
54368;SDS011;40266;52.434;17.056;2023-03-16T10:26:35;10.40;;;3.20;;
54368;SDS011;40266;52.434;17.056;2023-03-16T10:29:33;9.80;;;3.10;;
54368;SDS011;40266;52.434;17.056;2023-03-16T10:32:21;8.30;;;2.60;;
54368;SDS011;40266;52.434;17.056;2023-03-16T10:37:55;18.50;;;4.10;;
54368;SDS011;40266;52.434;17.056;2023-03-16T10:50:33;13.70;;;4.20;;
54368;SDS011;40266;52.434;17.056;2023-03-16T10:53:44;7.20;;;3.10;;
54368;SDS011;40266;52.434;17.056;2023-03-16T10:57:13;10.20;;;3.00;;
54368;SDS011;40266;52.434;17.056;2023-03-16T11:00:28;8.00;;;2.90;;
54368;SDS011;40266;52.434;17.056;2023-03-16T11:03:38;11.80;;;3.60;;
54368;SDS011;40266;52.434;17.056;2023-03-16T11:07:05;10.10;;;2.50;;
54368;SDS011;40266;52.434;17.056;2023-03-16T11:09:51;6.60;;;2.30;;
54368;SDS011;40266;52.434;17.056;2023-03-16T11:13:23;10.40;;;3.60;;
54368;SDS011;40266;52.434;17.056;2023-03-16T11:19:45;9.50;;;3.60;;
54368;SDS011;40266;52.434;17.056;2023-03-16T11:23:19;8.80;;;2.70;;
54368;SDS011;40266;52.434;17.056;2023-03-16T11:26:16;10.50;;;3.30;;
54368;SDS011;40266;52.434;17.056;2023-03-16T11:32:59;10.40;;;2.50;;
54368;SDS011;40266;52.434;17.056;2023-03-16T11:36:09;5.90;;;2.10;;
54368;SDS011;40266;52.434;17.056;2023-03-16T11:39:09;8.00;;;2.30;;
54368;SDS011;40266;52.434;17.056;2023-03-16T11:42:26;6.00;;;2.20;;
54368;SDS011;40266;52.434;17.056;2023-03-16T11:45:22;6.30;;;2.50;;
54368;SDS011;40266;52.434;17.056;2023-03-16T11:58:19;9.70;;;2.50;;
54368;SDS011;40266;52.434;17.056;2023-03-16T12:10:26;8.10;;;2.50;;
54368;SDS011;40266;52.434;17.056;2023-03-16T12:23:12;7.30;;;2.10;;
54368;SDS011;40266;52.434;17.056;2023-03-16T12:26:04;7.60;;;2.10;;
54368;SDS011;40266;52.434;17.056;2023-03-16T12:29:19;5.70;;;2.10;;
54368;SDS011;40266;52.434;17.056;2023-03-16T12:32:17;10.80;;;2.50;;
54368;SDS011;40266;52.434;17.056;2023-03-16T12:44:21;7.50;;;2.30;;
54368;SDS011;40266;52.434;17.056;2023-03-16T12:47:31;6.60;;;1.90;;
54368;SDS011;40266;52.434;17.056;2023-03-16T12:50:24;6.10;;;1.70;;
54368;SDS011;40266;52.434;17.056;2023-03-16T12:53:08;4.90;;;1.50;;
54368;SDS011;40266;52.434;17.056;2023-03-16T12:56:44;4.60;;;1.50;;
54368;SDS011;40266;52.434;17.056;2023-03-16T12:59:37;6.80;;;1.40;;
54368;SDS011;40266;52.434;17.056;2023-03-16T13:05:56;6.50;;;2.00;;
54368;SDS011;40266;52.434;17.056;2023-03-16T13:08:50;5.50;;;1.70;;
54368;SDS011;40266;52.434;17.056;2023-03-16T13:12:04;8.40;;;2.10;;
54368;SDS011;40266;52.434;17.056;2023-03-16T13:21:15;7.10;;;1.80;;
54368;SDS011;40266;52.434;17.056;2023-03-16T13:24:20;3.90;;;1.70;;
54368;SDS011;40266;52.434;17.056;2023-03-16T13:36:23;8.90;;;2.80;;
54368;SDS011;40266;52.434;17.056;2023-03-16T13:39:19;6.40;;;2.00;;
54368;SDS011;40266;52.434;17.056;2023-03-16T13:45:10;6.00;;;2.10;;
54368;SDS011;40266;52.434;17.056;2023-03-16T13:47:57;3.50;;;1.40;;
54368;SDS011;40266;52.434;17.056;2023-03-16T13:50:52;10.40;;;1.60;;
54368;SDS011;40266;52.434;17.056;2023-03-16T13:53:40;2.30;;;1.20;;
54368;SDS011;40266;52.434;17.056;2023-03-16T13:56:35;6.40;;;2.10;;
54368;SDS011;40266;52.434;17.056;2023-03-16T13:59:35;6.50;;;1.80;;
54368;SDS011;40266;52.434;17.056;2023-03-16T14:02:34;3.20;;;1.20;;
54368;SDS011;40266;52.434;17.056;2023-03-16T14:05:25;6.80;;;2.00;;
54368;SDS011;40266;52.434;17.056;2023-03-16T14:08:14;7.60;;;1.60;;
54368;SDS011;40266;52.434;17.056;2023-03-16T14:10:58;7.20;;;1.90;;
54368;SDS011;40266;52.434;17.056;2023-03-16T14:13:49;4.60;;;1.60;;
54368;SDS011;40266;52.434;17.056;2023-03-16T14:16:36;4.60;;;2.00;;
54368;SDS011;40266;52.434;17.056;2023-03-16T14:19:23;7.80;;;2.20;;
54368;SDS011;40266;52.434;17.056;2023-03-16T14:22:24;6.30;;;1.80;;
54368;SDS011;40266;52.434;17.056;2023-03-16T14:25:16;4.90;;;2.00;;
54368;SDS011;40266;52.434;17.056;2023-03-16T14:28:29;7.30;;;1.90;;
54368;SDS011;40266;52.434;17.056;2023-03-16T14:31:17;7.20;;;2.10;;
54368;SDS011;40266;52.434;17.056;2023-03-16T14:34:02;5.60;;;2.00;;
54368;SDS011;40266;52.434;17.056;2023-03-16T14:36:50;5.80;;;1.80;;
54368;SDS011;40266;52.434;17.056;2023-03-16T14:39:34;6.20;;;1.70;;
54368;SDS011;40266;52.434;17.056;2023-03-16T14:42:18;4.80;;;1.80;;
54368;SDS011;40266;52.434;17.056;2023-03-16T14:45:09;4.10;;;2.00;;
54368;SDS011;40266;52.434;17.056;2023-03-16T14:47:58;6.20;;;2.00;;
54368;SDS011;40266;52.434;17.056;2023-03-16T14:51:14;6.80;;;1.80;;
54368;SDS011;40266;52.434;17.056;2023-03-16T14:54:19;3.90;;;1.90;;
54368;SDS011;40266;52.434;17.056;2023-03-16T14:57:04;3.80;;;1.80;;
54368;SDS011;40266;52.434;17.056;2023-03-16T15:00:16;8.70;;;2.10;;
54368;SDS011;40266;52.434;17.056;2023-03-16T15:07:05;5.80;;;2.20;;
54368;SDS011;40266;52.434;17.056;2023-03-16T15:10:05;4.50;;;2.00;;
54368;SDS011;40266;52.434;17.056;2023-03-16T15:13:00;4.80;;;2.00;;
54368;SDS011;40266;52.434;17.056;2023-03-16T15:19:22;7.40;;;1.90;;
54368;SDS011;40266;52.434;17.056;2023-03-16T15:22:18;4.70;;;2.60;;
54368;SDS011;40266;52.434;17.056;2023-03-16T15:25:20;11.70;;;2.50;;
54368;SDS011;40266;52.434;17.056;2023-03-16T15:28:12;8.10;;;2.40;;
54368;SDS011;40266;52.434;17.056;2023-03-16T15:31:22;19.00;;;4.70;;
54368;SDS011;40266;52.434;17.056;2023-03-16T15:34:06;23.80;;;7.20;;
54368;SDS011;40266;52.434;17.056;2023-03-16T15:37:18;15.10;;;4.60;;
54368;SDS011;40266;52.434;17.056;2023-03-16T15:40:25;11.70;;;3.10;;
54368;SDS011;40266;52.434;17.056;2023-03-16T15:43:11;12.30;;;3.10;;
54368;SDS011;40266;52.434;17.056;2023-03-16T15:45:55;4.90;;;2.00;;
54368;SDS011;40266;52.434;17.056;2023-03-16T15:48:40;5.00;;;2.30;;
54368;SDS011;40266;52.434;17.056;2023-03-16T15:51:43;6.50;;;1.90;;
54368;SDS011;40266;52.434;17.056;2023-03-16T15:54:58;6.90;;;2.40;;
54368;SDS011;40266;52.434;17.056;2023-03-16T15:57:50;8.10;;;2.90;;
54368;SDS011;40266;52.434;17.056;2023-03-16T16:01:02;9.60;;;3.00;;
54368;SDS011;40266;52.434;17.056;2023-03-16T16:04:08;9.90;;;2.90;;
54368;SDS011;40266;52.434;17.056;2023-03-16T16:13:29;8.40;;;3.20;;
54368;SDS011;40266;52.434;17.056;2023-03-16T16:16:37;12.30;;;3.70;;
54368;SDS011;40266;52.434;17.056;2023-03-16T16:23:19;10.80;;;3.40;;
54368;SDS011;40266;52.434;17.056;2023-03-16T16:26:22;10.80;;;3.80;;
54368;SDS011;40266;52.434;17.056;2023-03-16T16:29:49;10.10;;;3.80;;
54368;SDS011;40266;52.434;17.056;2023-03-16T16:32:35;11.50;;;3.40;;
54368;SDS011;40266;52.434;17.056;2023-03-16T16:35:41;11.20;;;3.80;;
54368;SDS011;40266;52.434;17.056;2023-03-16T16:38:58;11.40;;;4.30;;
54368;SDS011;40266;52.434;17.056;2023-03-16T16:41:45;10.20;;;4.10;;
54368;SDS011;40266;52.434;17.056;2023-03-16T16:44:51;14.20;;;5.00;;
54368;SDS011;40266;52.434;17.056;2023-03-16T16:50:44;13.90;;;5.40;;
54368;SDS011;40266;52.434;17.056;2023-03-16T16:57:18;22.40;;;7.50;;
54368;SDS011;40266;52.434;17.056;2023-03-16T17:03:58;27.30;;;9.50;;
54368;SDS011;40266;52.434;17.056;2023-03-16T17:07:04;27.20;;;10.20;;
54368;SDS011;40266;52.434;17.056;2023-03-16T17:10:07;27.00;;;9.70;;
54368;SDS011;40266;52.434;17.056;2023-03-16T17:13:36;27.20;;;11.10;;
54368;SDS011;40266;52.434;17.056;2023-03-16T17:20:16;23.60;;;9.50;;
54368;SDS011;40266;52.434;17.056;2023-03-16T17:24:04;30.00;;;10.00;;
54368;SDS011;40266;52.434;17.056;2023-03-16T17:34:13;30.70;;;11.50;;
54368;SDS011;40266;52.434;17.056;2023-03-16T17:37:20;26.60;;;10.80;;
54368;SDS011;40266;52.434;17.056;2023-03-16T17:40:37;33.90;;;11.70;;
54368;SDS011;40266;52.434;17.056;2023-03-16T17:43:46;33.00;;;10.70;;
54368;SDS011;40266;52.434;17.056;2023-03-16T17:50:16;40.40;;;12.80;;
54368;SDS011;40266;52.434;17.056;2023-03-16T17:56:26;37.40;;;12.80;;
54368;SDS011;40266;52.434;17.056;2023-03-16T17:59:50;31.70;;;12.00;;
54368;SDS011;40266;52.434;17.056;2023-03-16T18:10:42;35.10;;;14.10;;
54368;SDS011;40266;52.434;17.056;2023-03-16T18:13:34;43.00;;;15.00;;
54368;SDS011;40266;52.434;17.056;2023-03-16T18:27:22;54.00;;;22.50;;
54368;SDS011;40266;52.434;17.056;2023-03-16T18:30:16;59.20;;;19.20;;
54368;SDS011;40266;52.434;17.056;2023-03-16T18:33:42;54.00;;;20.20;;
54368;SDS011;40266;52.434;17.056;2023-03-16T18:40:46;67.50;;;26.90;;
54368;SDS011;40266;52.434;17.056;2023-03-16T18:51:33;111.00;;;43.20;;
54368;SDS011;40266;52.434;17.056;2023-03-16T18:58:10;103.50;;;42.90;;
54368;SDS011;40266;52.434;17.056;2023-03-16T19:01:43;106.10;;;43.60;;
54368;SDS011;40266;52.434;17.056;2023-03-16T19:08:38;97.30;;;37.10;;
54368;SDS011;40266;52.434;17.056;2023-03-16T19:18:49;86.20;;;35.60;;
54368;SDS011;40266;52.434;17.056;2023-03-16T19:22:10;86.10;;;36.60;;
54368;SDS011;40266;52.434;17.056;2023-03-16T19:25:47;90.60;;;37.20;;
54368;SDS011;40266;52.434;17.056;2023-03-16T19:29:18;82.10;;;37.50;;
54368;SDS011;40266;52.434;17.056;2023-03-16T19:35:31;89.00;;;37.50;;
54368;SDS011;40266;52.434;17.056;2023-03-16T19:39:14;87.10;;;36.40;;
54368;SDS011;40266;52.434;17.056;2023-03-16T19:53:55;103.30;;;44.90;;
54368;SDS011;40266;52.434;17.056;2023-03-16T19:57:30;98.20;;;46.50;;
54368;SDS011;40266;52.434;17.056;2023-03-16T20:00:39;107.90;;;48.20;;
54368;SDS011;40266;52.434;17.056;2023-03-16T20:03:53;108.00;;;49.50;;
54368;SDS011;40266;52.434;17.056;2023-03-16T20:07:45;101.30;;;46.00;;
54368;SDS011;40266;52.434;17.056;2023-03-16T20:14:44;106.70;;;49.30;;
54368;SDS011;40266;52.434;17.056;2023-03-16T20:21:45;115.90;;;51.70;;
54368;SDS011;40266;52.434;17.056;2023-03-16T20:24:50;114.80;;;54.40;;
54368;SDS011;40266;52.434;17.056;2023-03-16T20:38:29;92.80;;;40.50;;
54368;SDS011;40266;52.434;17.056;2023-03-16T20:45:52;84.80;;;36.10;;
54368;SDS011;40266;52.434;17.056;2023-03-16T20:48:44;76.60;;;32.70;;
54368;SDS011;40266;52.434;17.056;2023-03-16T20:51:55;72.30;;;31.70;;
54368;SDS011;40266;52.434;17.056;2023-03-16T20:55:29;72.50;;;33.10;;
54368;SDS011;40266;52.434;17.056;2023-03-16T21:02:22;77.40;;;33.40;;
54368;SDS011;40266;52.434;17.056;2023-03-16T21:13:03;72.80;;;31.70;;
54368;SDS011;40266;52.434;17.056;2023-03-16T21:28:03;65.80;;;28.50;;
54368;SDS011;40266;52.434;17.056;2023-03-16T21:38:44;69.60;;;29.70;;
54368;SDS011;40266;52.434;17.056;2023-03-16T21:42:08;64.80;;;29.00;;
54368;SDS011;40266;52.434;17.056;2023-03-16T21:53:43;63.00;;;26.40;;
54368;SDS011;40266;52.434;17.056;2023-03-16T21:56:54;57.10;;;25.40;;
54368;SDS011;40266;52.434;17.056;2023-03-16T22:08:26;59.40;;;26.60;;
54368;SDS011;40266;52.434;17.056;2023-03-16T22:15:59;55.70;;;25.30;;
54368;SDS011;40266;52.434;17.056;2023-03-16T22:19:19;60.50;;;26.80;;
54368;SDS011;40266;52.434;17.056;2023-03-16T23:05:32;61.40;;;24.90;;
54368;SDS011;40266;52.434;17.056;2023-03-16T23:20:37;57.00;;;21.80;;
54368;SDS011;40266;52.434;17.056;2023-03-16T23:28:08;50.40;;;19.70;;
54368;SDS011;40266;52.434;17.056;2023-03-16T23:39:07;44.10;;;18.20;;
54368;SDS011;40266;52.434;17.056;2023-03-16T23:46:20;40.20;;;16.70;;
54368;SDS011;40266;52.434;17.056;2023-03-16T23:53:35;36.60;;;15.00;;
54368;SDS011;40266;52.434;17.056;2023-03-16T23:57:14;41.90;;;15.40;;
